createdAt,value
2019-02-27T00:01:42.602Z,4.60
2019-02-27T00:04:12.933Z,4.60
2019-02-27T00:06:43.281Z,4.60
2019-02-27T00:09:13.635Z,4.60
2019-02-27T00:11:46.746Z,4.60
2019-02-27T00:14:16.009Z,4.60
2019-02-27T00:16:47.886Z,4.60
2019-02-27T00:19:18.230Z,4.60
2019-02-27T00:21:48.569Z,4.60
2019-02-27T00:24:18.932Z,4.50
2019-02-27T00:26:49.267Z,4.50
2019-02-27T00:29:19.614Z,4.50
2019-02-27T00:31:49.970Z,4.50
2019-02-27T00:34:20.304Z,4.40
2019-02-27T00:36:50.716Z,4.40
2019-02-27T00:39:21.045Z,4.30
2019-02-27T00:41:51.379Z,4.30
2019-02-27T00:44:22.693Z,4.30
2019-02-27T00:46:53.034Z,4.20
2019-02-27T00:49:23.374Z,4.20
2019-02-27T00:51:53.716Z,4.20
2019-02-27T00:54:24.051Z,4.20
2019-02-27T00:56:54.401Z,4.20
2019-02-27T00:59:24.730Z,4.10
2019-02-27T01:01:55.097Z,4.10
2019-02-27T01:04:25.427Z,4.10
2019-02-27T01:06:57.307Z,4.10
2019-02-27T01:09:27.642Z,4.10
2019-02-27T01:11:58.053Z,4.00
2019-02-27T01:14:28.398Z,4.00
2019-02-27T01:16:58.740Z,4.00
2019-02-27T01:19:29.082Z,3.90
2019-02-27T01:21:59.421Z,3.90
2019-02-27T01:24:29.803Z,3.90
2019-02-27T01:27:04.166Z,3.90
2019-02-27T01:29:32.201Z,3.90
2019-02-27T01:32:04.084Z,3.90
2019-02-27T01:34:34.411Z,3.80
2019-02-27T01:37:04.822Z,3.80
2019-02-27T01:39:35.163Z,3.80
2019-02-27T01:42:05.505Z,3.80
2019-02-27T01:44:35.849Z,3.70
2019-02-27T01:47:06.191Z,3.70
2019-02-27T01:49:37.695Z,3.70
2019-02-27T01:52:08.039Z,3.60
2019-02-27T01:54:38.802Z,3.60
2019-02-27T01:57:09.146Z,3.60
2019-02-27T01:59:39.490Z,3.60
2019-02-27T02:02:09.833Z,3.60
2019-02-27T02:04:40.177Z,3.60
2019-02-27T02:07:10.590Z,3.50
2019-02-27T02:09:40.981Z,3.50
2019-02-27T02:12:17.173Z,3.50
2019-02-27T02:15:28.578Z,3.50
2019-02-27T02:18:42.950Z,3.40
2019-02-27T02:21:48.014Z,3.40
2019-02-27T02:25:02.534Z,3.40
2019-02-27T02:27:43.927Z,3.40
2019-02-27T02:30:41.578Z,3.30
2019-02-27T02:33:37.172Z,3.30
2019-02-27T02:36:27.838Z,3.30
2019-02-27T02:39:39.594Z,3.20
2019-02-27T02:42:35.499Z,3.20
2019-02-27T02:45:16.433Z,3.20
2019-02-27T02:48:20.878Z,3.10
2019-02-27T02:51:29.002Z,3.10
2019-02-27T02:54:37.922Z,3.10
2019-02-27T02:57:25.411Z,3.10
2019-02-27T03:00:01.999Z,3.00
2019-02-27T03:03:17.545Z,3.00
2019-02-27T03:06:25.803Z,3.00
2019-02-27T03:09:09.137Z,3.00
2019-02-27T03:12:13.003Z,2.90
2019-02-27T03:15:28.428Z,2.90
2019-02-27T03:17:59.518Z,2.90
2019-02-27T03:24:27.956Z,2.80
2019-02-27T03:27:12.756Z,2.80
2019-02-27T03:30:17.853Z,2.80
2019-02-27T03:33:24.768Z,2.70
2019-02-27T03:36:23.318Z,2.70
2019-02-27T03:39:35.139Z,2.70
2019-02-27T03:42:48.346Z,2.70
2019-02-27T03:45:58.538Z,2.70
2019-02-27T03:48:39.088Z,2.60
2019-02-27T03:51:33.138Z,2.60
2019-02-27T03:54:21.391Z,2.60
2019-02-27T03:57:18.962Z,2.50
2019-02-27T04:00:21.989Z,2.50
2019-02-27T04:03:09.622Z,2.50
2019-02-27T04:05:47.379Z,2.50
2019-02-27T04:08:33.460Z,2.50
2019-02-27T04:11:06.033Z,2.40
2019-02-27T04:13:35.909Z,2.40
2019-02-27T04:16:06.246Z,2.40
2019-02-27T04:18:34.958Z,2.40
2019-02-27T04:21:05.381Z,2.40
2019-02-27T04:23:36.024Z,2.40
2019-02-27T04:26:06.706Z,2.40
2019-02-27T04:28:37.185Z,2.40
2019-02-27T04:31:07.521Z,2.30
2019-02-27T04:33:39.161Z,2.30
2019-02-27T04:36:12.466Z,2.30
2019-02-27T04:38:41.537Z,2.30
2019-02-27T04:41:11.868Z,2.30
2019-02-27T04:43:42.217Z,2.30
2019-02-27T04:46:12.545Z,2.30
2019-02-27T04:48:43.868Z,2.30
2019-02-27T04:51:16.951Z,2.30
2019-02-27T04:53:46.258Z,2.30
2019-02-27T04:56:16.592Z,2.30
2019-02-27T04:58:46.944Z,2.30
2019-02-27T05:01:17.285Z,2.30
2019-02-27T05:03:47.650Z,2.30
2019-02-27T05:06:17.998Z,2.30
2019-02-27T05:08:48.346Z,2.30
2019-02-27T05:11:18.685Z,2.30
2019-02-27T05:13:49.035Z,2.20
2019-02-27T05:16:19.377Z,2.20
2019-02-27T05:18:49.826Z,2.30
2019-02-27T05:21:20.181Z,2.20
2019-02-27T05:23:50.528Z,2.20
2019-02-27T05:26:20.867Z,2.30
2019-02-27T05:28:51.220Z,2.30
2019-02-27T05:31:21.564Z,2.30
2019-02-27T05:33:51.914Z,2.30
2019-02-27T05:36:22.275Z,2.30
2019-02-27T05:38:52.641Z,2.30
2019-02-27T05:41:22.981Z,2.30
2019-02-27T05:43:53.328Z,2.30
2019-02-27T05:46:23.675Z,2.30
2019-02-27T05:48:54.034Z,2.30
2019-02-27T05:51:24.351Z,2.30
2019-02-27T05:53:56.133Z,2.30
2019-02-27T05:56:26.741Z,2.30
2019-02-27T05:58:57.107Z,2.30
2019-02-27T06:01:27.449Z,2.30
2019-02-27T06:03:57.782Z,2.30
2019-02-27T06:06:28.125Z,2.20
2019-02-27T06:08:58.470Z,2.20
2019-02-27T06:11:29.568Z,2.20
2019-02-27T06:14:00.843Z,2.20
2019-02-27T06:16:31.180Z,2.20
2019-02-27T06:19:01.526Z,2.20
2019-02-27T06:21:31.864Z,2.20
2019-02-27T06:24:02.219Z,2.20
2019-02-27T06:26:32.986Z,2.10
2019-02-27T06:29:03.379Z,2.10
2019-02-27T06:31:36.837Z,2.10
2019-02-27T06:34:05.774Z,2.10
2019-02-27T06:36:36.111Z,2.10
2019-02-27T06:39:09.402Z,2.10
2019-02-27T06:41:40.081Z,2.10
2019-02-27T06:44:10.380Z,2.10
2019-02-27T06:46:40.706Z,2.10
2019-02-27T06:49:11.050Z,2.10
2019-02-27T06:51:41.386Z,2.20
2019-02-27T06:54:12.698Z,2.20
2019-02-27T06:56:51.119Z,2.20
2019-02-27T06:59:25.256Z,2.20
2019-02-27T07:01:56.234Z,2.30
2019-02-27T07:04:26.950Z,2.30
2019-02-27T07:07:08.106Z,2.30
2019-02-27T07:09:35.235Z,2.30
2019-02-27T07:12:07.102Z,2.40
2019-02-27T07:14:39.271Z,2.50
2019-02-27T07:17:09.745Z,2.50
2019-02-27T07:19:40.374Z,2.60
2019-02-27T07:22:12.674Z,2.70
2019-02-27T07:24:44.138Z,2.90
2019-02-27T07:27:14.486Z,3.10
2019-02-27T07:29:44.825Z,3.40
2019-02-27T07:32:15.171Z,3.70
2019-02-27T07:34:46.717Z,3.90
2019-02-27T07:37:17.561Z,4.20
2019-02-27T07:39:47.903Z,4.30
2019-02-27T07:42:18.234Z,4.40
2019-02-27T07:44:48.597Z,4.40
2019-02-27T07:47:18.928Z,4.50
2019-02-27T07:49:49.282Z,4.50
2019-02-27T07:52:19.610Z,4.50
2019-02-27T07:54:51.210Z,4.60
2019-02-27T07:57:22.896Z,4.60
2019-02-27T07:59:53.144Z,4.70
2019-02-27T08:02:23.482Z,4.70
2019-02-27T08:04:57.021Z,4.80
2019-02-27T08:07:27.359Z,4.80
2019-02-27T08:09:57.701Z,4.90
2019-02-27T08:12:28.029Z,5.00
2019-02-27T08:14:59.749Z,5.00
2019-02-27T08:17:30.185Z,5.10
2019-02-27T08:20:01.460Z,5.30
2019-02-27T08:22:31.867Z,5.40
2019-02-27T08:25:02.205Z,5.50
2019-02-27T08:27:32.679Z,5.70
2019-02-27T08:30:03.038Z,6.00
2019-02-27T08:32:35.244Z,6.20
2019-02-27T08:35:06.969Z,6.50
2019-02-27T08:37:37.309Z,6.80
2019-02-27T08:40:11.435Z,7.20
2019-02-27T08:42:41.779Z,7.40
2019-02-27T08:45:20.952Z,7.60
2019-02-27T08:47:51.315Z,7.80
2019-02-27T08:50:25.325Z,8.00
2019-02-27T08:52:57.759Z,8.20
2019-02-27T08:55:27.726Z,8.40
2019-02-27T08:57:58.074Z,8.50
2019-02-27T09:00:35.219Z,8.60
2019-02-27T09:03:05.641Z,8.70
2019-02-27T09:05:36.000Z,8.90
2019-02-27T09:08:07.359Z,9.10
2019-02-27T09:10:38.379Z,9.40
2019-02-27T09:13:09.788Z,9.80
2019-02-27T09:15:41.757Z,10.00
2019-02-27T09:18:12.224Z,10.30
2019-02-27T09:20:42.591Z,10.40
2019-02-27T09:23:12.927Z,10.60
2019-02-27T09:25:43.285Z,10.70
2019-02-27T09:28:13.647Z,10.80
2019-02-27T09:30:43.998Z,10.90
2019-02-27T09:33:16.884Z,11.10
2019-02-27T09:35:46.477Z,11.30
2019-02-27T09:38:16.817Z,11.40
2019-02-27T09:40:47.169Z,11.50
2019-02-27T09:43:17.513Z,11.60
2019-02-27T09:45:47.950Z,11.90
2019-02-27T09:48:19.309Z,12.10
2019-02-27T09:50:49.747Z,12.40
2019-02-27T09:53:20.087Z,12.70
2019-02-27T09:55:53.529Z,13.10
2019-02-27T09:58:24.362Z,13.50
2019-02-27T10:01:03.106Z,14.00
2019-02-27T10:03:33.597Z,14.50
2019-02-27T10:06:04.023Z,15.10
2019-02-27T10:08:34.373Z,15.70
2019-02-27T10:11:04.815Z,16.20
2019-02-27T10:13:35.518Z,16.80
2019-02-27T10:16:07.297Z,17.20
2019-02-27T10:18:37.646Z,17.70
2019-02-27T10:21:09.448Z,18.20
2019-02-27T10:23:40.068Z,18.70
2019-02-27T10:26:10.428Z,19.00
2019-02-27T10:28:40.785Z,19.20
2019-02-27T10:31:12.761Z,19.50
2019-02-27T10:33:43.658Z,19.50
2019-02-27T10:36:14.150Z,19.70
2019-02-27T10:38:45.514Z,19.90
2019-02-27T10:41:15.923Z,20.20
2019-02-27T10:43:46.274Z,20.30
2019-02-27T10:46:16.628Z,20.50
2019-02-27T10:48:47.626Z,20.80
2019-02-27T10:51:18.097Z,20.80
2019-02-27T10:53:50.342Z,21.20
2019-02-27T10:56:21.587Z,21.40
2019-02-27T10:58:52.596Z,21.50
2019-02-27T11:01:22.931Z,21.60
2019-02-27T11:03:54.614Z,21.80
2019-02-27T11:06:33.511Z,21.90
2019-02-27T11:08:57.045Z,22.00
2019-02-27T11:11:27.460Z,22.20
2019-02-27T11:13:57.812Z,22.20
2019-02-27T11:16:28.462Z,22.40
2019-02-27T11:18:58.849Z,22.40
2019-02-27T11:21:29.197Z,22.50
2019-02-27T11:23:59.543Z,22.50
2019-02-27T11:26:33.014Z,22.50
2019-02-27T11:29:01.971Z,22.60
2019-02-27T11:31:32.388Z,22.50
2019-02-27T11:34:05.085Z,22.60
2019-02-27T11:36:38.933Z,22.50
2019-02-27T11:39:08.488Z,22.60
2019-02-27T11:41:39.706Z,22.50
2019-02-27T11:44:13.995Z,22.30
2019-02-27T11:46:42.111Z,22.20
2019-02-27T11:49:12.458Z,22.20
2019-02-27T11:51:42.807Z,22.10
2019-02-27T11:54:14.613Z,22.20
2019-02-27T11:56:45.053Z,22.10
2019-02-27T11:59:15.404Z,22.10
2019-02-27T12:01:45.739Z,22.10
2019-02-27T12:04:19.266Z,22.10
2019-02-27T12:06:48.127Z,22.10
2019-02-27T12:09:18.815Z,22.00
2019-02-27T12:11:49.469Z,21.90
2019-02-27T12:14:20.020Z,22.00
2019-02-27T12:16:51.740Z,21.90
2019-02-27T12:19:22.409Z,22.00
2019-02-27T12:21:52.772Z,21.80
2019-02-27T12:24:23.140Z,21.50
2019-02-27T12:26:53.486Z,21.50
2019-02-27T12:29:24.158Z,21.30
2019-02-27T12:31:55.871Z,21.20
2019-02-27T12:34:26.222Z,21.00
2019-02-27T12:36:56.564Z,20.80
2019-02-27T12:39:26.907Z,20.70
2019-02-27T12:41:57.250Z,20.50
2019-02-27T12:44:27.592Z,20.30
2019-02-27T12:46:57.947Z,20.10
2019-02-27T12:49:28.298Z,19.90
2019-02-27T12:51:58.637Z,19.80
2019-02-27T12:54:28.988Z,19.60
2019-02-27T12:56:59.334Z,19.50
2019-02-27T12:59:30.769Z,19.40
2019-02-27T13:02:08.074Z,19.40
2019-02-27T13:04:33.856Z,19.20
2019-02-27T13:07:04.195Z,19.10
2019-02-27T13:09:34.552Z,19.00
2019-02-27T13:12:04.895Z,18.90
2019-02-27T13:14:35.261Z,18.80
2019-02-27T13:17:05.713Z,18.80
2019-02-27T13:19:38.516Z,18.80
2019-02-27T13:22:08.071Z,18.70
2019-02-27T13:24:38.687Z,18.60
2019-02-27T13:27:09.840Z,18.60
2019-02-27T13:29:40.262Z,18.60
2019-02-27T13:32:10.600Z,18.50
2019-02-27T13:34:40.951Z,18.50
2019-02-27T13:37:11.288Z,18.50
2019-02-27T13:39:41.640Z,18.40
2019-02-27T13:42:11.985Z,18.40
2019-02-27T13:44:42.334Z,18.50
2019-02-27T13:47:12.680Z,18.40
2019-02-27T13:49:45.041Z,18.40
2019-02-27T13:52:15.085Z,18.30
2019-02-27T13:54:45.438Z,18.30
2019-02-27T13:57:15.887Z,18.30
2019-02-27T13:59:46.232Z,18.20
2019-02-27T14:02:16.580Z,18.20
2019-02-27T14:04:46.921Z,18.20
2019-02-27T14:07:18.290Z,18.20
2019-02-27T14:09:51.244Z,18.20
2019-02-27T14:12:21.595Z,18.20
2019-02-27T14:14:53.293Z,18.20
2019-02-27T14:17:24.180Z,18.20
2019-02-27T14:19:55.298Z,18.10
2019-02-27T14:22:26.171Z,18.10
2019-02-27T14:24:58.300Z,18.10
2019-02-27T14:27:29.348Z,18.10
2019-02-27T14:30:03.263Z,18.10
2019-02-27T14:32:33.032Z,18.10
2019-02-27T14:35:04.345Z,18.10
2019-02-27T14:37:34.693Z,18.10
2019-02-27T14:40:09.411Z,18.10
2019-02-27T14:42:39.834Z,18.00
2019-02-27T14:45:20.225Z,18.00
2019-02-27T14:47:50.574Z,18.00
2019-02-27T14:50:25.616Z,18.00
2019-02-27T14:52:55.969Z,18.00
2019-02-27T14:55:26.322Z,17.90
2019-02-27T14:57:56.665Z,17.90
2019-02-27T15:00:39.839Z,17.80
2019-02-27T15:03:08.944Z,17.80
2019-02-27T15:05:43.398Z,17.80
2019-02-27T15:08:12.307Z,17.80
2019-02-27T15:10:42.658Z,17.70
2019-02-27T15:13:13.015Z,17.70
2019-02-27T15:15:44.386Z,17.60
2019-02-27T15:18:15.695Z,17.60
2019-02-27T15:20:46.035Z,17.60
2019-02-27T15:23:17.994Z,17.50
2019-02-27T15:25:48.349Z,17.50
2019-02-27T15:28:18.695Z,17.50
2019-02-27T15:30:49.046Z,17.40
2019-02-27T15:33:19.395Z,17.40
2019-02-27T15:35:49.745Z,17.30
2019-02-27T15:38:20.103Z,17.30
2019-02-27T15:40:50.449Z,17.20
2019-02-27T15:43:20.804Z,17.20
2019-02-27T15:45:51.148Z,17.10
2019-02-27T15:48:21.499Z,17.10
2019-02-27T15:50:56.339Z,17.00
2019-02-27T15:53:23.915Z,17.00
2019-02-27T15:55:54.268Z,16.90
2019-02-27T15:58:25.304Z,16.90
2019-02-27T16:00:57.154Z,16.80
2019-02-27T16:03:27.492Z,16.70
2019-02-27T16:05:57.844Z,16.70
2019-02-27T16:08:29.257Z,16.70
2019-02-27T16:10:59.612Z,16.60
2019-02-27T16:13:32.035Z,16.60
2019-02-27T16:16:04.761Z,16.50
2019-02-27T16:18:36.913Z,16.50
2019-02-27T16:21:07.966Z,16.40
2019-02-27T16:23:38.327Z,16.30
2019-02-27T16:26:08.685Z,16.20
2019-02-27T16:28:39.030Z,16.20
2019-02-27T16:31:19.509Z,16.20
2019-02-27T16:33:49.866Z,16.10
2019-02-27T16:36:20.223Z,16.00
2019-02-27T16:38:50.580Z,15.90
2019-02-27T16:41:21.245Z,15.90
2019-02-27T16:43:51.605Z,15.80
2019-02-27T16:46:22.887Z,15.70
2019-02-27T16:48:53.300Z,15.60
2019-02-27T16:51:23.655Z,15.50
2019-02-27T16:53:54.005Z,15.40
2019-02-27T16:56:24.359Z,15.30
2019-02-27T16:58:54.724Z,15.20
2019-02-27T17:01:26.322Z,15.20
2019-02-27T17:04:00.330Z,15.00
2019-02-27T17:06:29.176Z,14.90
2019-02-27T17:08:59.567Z,14.80
2019-02-27T17:11:32.523Z,14.70
2019-02-27T17:14:03.603Z,14.60
2019-02-27T17:16:33.974Z,14.50
2019-02-27T17:19:04.316Z,14.40
2019-02-27T17:21:34.659Z,14.30
2019-02-27T17:24:05.075Z,14.20
2019-02-27T17:26:39.043Z,14.10
2019-02-27T17:29:07.479Z,14.00
2019-02-27T17:31:37.830Z,13.90
2019-02-27T17:34:13.445Z,13.80
2019-02-27T17:36:41.192Z,13.80
2019-02-27T17:39:11.603Z,13.70
2019-02-27T17:41:44.682Z,13.60
2019-02-27T17:44:14.089Z,13.60
2019-02-27T17:46:44.420Z,13.50
2019-02-27T17:49:15.150Z,13.40
2019-02-27T17:51:45.491Z,13.30
2019-02-27T17:54:15.843Z,13.20
2019-02-27T17:56:47.248Z,13.20
2019-02-27T17:59:18.481Z,13.10
2019-02-27T18:01:48.884Z,13.10
2019-02-27T18:04:19.235Z,13.00
2019-02-27T18:06:49.579Z,12.90
2019-02-27T18:09:20.301Z,12.80
2019-02-27T18:11:52.544Z,12.80
2019-02-27T18:14:25.025Z,12.70
2019-02-27T18:16:59.191Z,12.60
2019-02-27T18:19:28.633Z,12.50
2019-02-27T18:21:58.979Z,12.50
2019-02-27T18:24:33.332Z,12.30
2019-02-27T18:27:01.378Z,12.20
2019-02-27T18:29:31.724Z,12.20
2019-02-27T18:32:06.196Z,12.20
2019-02-27T18:34:34.126Z,12.20
2019-02-27T18:37:04.919Z,12.10
2019-02-27T18:39:36.537Z,12.10
2019-02-27T18:42:07.490Z,12.00
2019-02-27T18:44:40.659Z,11.90
2019-02-27T18:47:09.989Z,11.90
2019-02-27T18:49:42.403Z,11.80
2019-02-27T18:52:21.051Z,11.70
2019-02-27T18:54:44.880Z,11.70
2019-02-27T18:57:15.235Z,11.60
2019-02-27T18:59:45.592Z,11.50
2019-02-27T19:02:19.634Z,11.40
2019-02-27T19:04:47.986Z,11.40
2019-02-27T19:07:20.172Z,11.30
2019-02-27T19:09:50.387Z,11.20
2019-02-27T19:12:25.050Z,11.20
2019-02-27T19:14:52.849Z,11.10
2019-02-27T19:17:23.338Z,11.00
2019-02-27T19:19:54.633Z,11.00
2019-02-27T19:22:25.103Z,10.90
2019-02-27T19:24:57.464Z,10.80
2019-02-27T19:27:27.567Z,10.80
2019-02-27T19:29:57.922Z,10.70
2019-02-27T19:32:28.269Z,10.60
2019-02-27T19:34:58.626Z,10.50
2019-02-27T19:37:30.146Z,10.40
2019-02-27T19:40:00.501Z,10.30
2019-02-27T19:42:32.472Z,10.20
2019-02-27T19:45:04.393Z,10.10
2019-02-27T19:47:35.120Z,10.00
2019-02-27T19:50:11.248Z,9.90
2019-02-27T19:52:41.418Z,9.80
2019-02-27T19:55:12.966Z,9.70
2019-02-27T19:57:43.544Z,9.60
2019-02-27T20:00:20.731Z,9.50
2019-02-27T20:02:55.225Z,9.40
2019-02-27T20:05:23.651Z,9.30
2019-02-27T20:07:54.849Z,9.20
2019-02-27T20:10:28.914Z,9.10
2019-02-27T20:12:57.872Z,9.00
2019-02-27T20:15:28.463Z,8.90
2019-02-27T20:17:58.873Z,8.90
2019-02-27T20:20:30.068Z,8.80
2019-02-27T20:23:00.670Z,8.70
2019-02-27T20:25:32.923Z,8.60
2019-02-27T20:28:03.385Z,8.50
2019-02-27T20:30:33.736Z,8.50
2019-02-27T20:33:04.282Z,8.40
2019-02-27T20:35:34.620Z,8.30
2019-02-27T20:38:05.114Z,8.30
2019-02-27T20:40:35.458Z,8.30
2019-02-27T20:43:05.795Z,8.20
2019-02-27T20:45:36.187Z,8.30
2019-02-27T20:48:06.667Z,8.30
2019-02-27T20:50:40.829Z,8.30
2019-02-27T20:53:13.896Z,8.40
2019-02-27T20:55:44.336Z,8.50
2019-02-27T20:58:16.840Z,8.60
2019-02-27T21:00:47.040Z,8.70
2019-02-27T21:03:17.385Z,8.70
2019-02-27T21:05:48.614Z,8.70
2019-02-27T21:08:19.046Z,8.80
2019-02-27T21:10:54.722Z,8.80
2019-02-27T21:13:21.495Z,8.80
2019-02-27T21:15:51.856Z,8.80
2019-02-27T21:18:22.192Z,8.80
2019-02-27T21:20:52.556Z,8.80
2019-02-27T21:23:22.900Z,8.80
2019-02-27T21:25:53.241Z,8.70
2019-02-27T21:28:23.578Z,8.70
2019-02-27T21:30:53.920Z,8.70
2019-02-27T21:33:24.253Z,8.70
2019-02-27T21:35:54.632Z,8.70
2019-02-27T21:38:24.973Z,8.70
2019-02-27T21:40:55.308Z,8.60
2019-02-27T21:43:26.349Z,8.60
2019-02-27T21:45:56.709Z,8.50
2019-02-27T21:48:27.868Z,8.50
2019-02-27T21:50:58.271Z,8.50
2019-02-27T21:53:29.681Z,8.40
2019-02-27T21:56:01.123Z,8.40
2019-02-27T21:58:32.957Z,8.40
2019-02-27T22:01:03.392Z,8.40
2019-02-27T22:03:35.293Z,8.30
2019-02-27T22:06:05.911Z,8.30
2019-02-27T22:08:38.868Z,8.30
2019-02-27T22:11:09.358Z,8.30
2019-02-27T22:13:42.255Z,8.20
2019-02-27T22:16:12.828Z,8.20
2019-02-27T22:18:46.759Z,8.10
2019-02-27T22:21:15.196Z,8.00
2019-02-27T22:23:45.986Z,7.90
2019-02-27T22:26:16.459Z,7.80
2019-02-27T22:28:46.802Z,7.70
2019-02-27T22:31:17.134Z,7.60
2019-02-27T22:33:47.479Z,7.50
2019-02-27T22:36:17.820Z,7.40
2019-02-27T22:38:48.164Z,7.40
2019-02-27T22:41:18.507Z,7.30
2019-02-27T22:43:48.860Z,7.20
2019-02-27T22:46:19.198Z,7.10
2019-02-27T22:48:49.546Z,7.10
2019-02-27T22:51:19.887Z,7.00
2019-02-27T22:53:50.233Z,6.90
2019-02-27T22:56:20.575Z,6.80
2019-02-27T22:58:51.671Z,6.80
2019-02-27T23:01:24.076Z,6.70
2019-02-27T23:03:57.850Z,6.60
2019-02-27T23:06:31.946Z,6.50
2019-02-27T23:09:02.390Z,6.50
2019-02-27T23:11:36.793Z,6.40
2019-02-27T23:14:06.887Z,6.30
2019-02-27T23:16:37.362Z,6.30
2019-02-27T23:19:07.770Z,6.20
2019-02-27T23:21:38.178Z,6.20
2019-02-27T23:24:10.146Z,6.10
2019-02-27T23:26:41.318Z,6.10
2019-02-27T23:29:11.669Z,6.00
2019-02-27T23:31:42.008Z,6.00
2019-02-27T23:34:12.359Z,6.00
2019-02-27T23:36:43.777Z,6.00
2019-02-27T23:39:14.484Z,6.00
2019-02-27T23:41:44.827Z,5.90
2019-02-27T23:44:15.168Z,5.90
2019-02-27T23:46:49.743Z,5.90
2019-02-27T23:49:17.553Z,5.80
2019-02-27T23:51:48.524Z,5.80
2019-02-27T23:54:19.122Z,5.80
2019-02-27T23:56:51.882Z,5.70
2019-02-27T23:59:21.539Z,5.70
